Lynchburg, Virginia
Current Conditions -  °F | °C
As of 4:54 AM on Friday 28 Nov 2014 (Local Time) from KLYH Reporting Station
Few Clouds Few Clouds  
Wind Chill: 23°   Ceiling: Unl
Heat Index: 28°   Visibility: NA
Dew Point: 19°   Wind: 5mph
Humidity: 69%   Direction: 260°W
Pressure: 30.27"   Gusts: NA
Location:  37.4°N, 79.15°W
Report Text: KLYH 280954Z AUTO 26004KT FEW048 M02/M07 A3027 RMK AO2 SLP256 T10221072 $
Loading
Personal Weather Stations






























Interactive Weather Map New forecast layout! Learn more

10-Day Weather Forecast

Advertisements
Track Severe Weather on mobile